Time;durP1;ratioP1;P1;durP2;ratioP2;P2;SDS_P1;SDS_P2;PMS_P1;PMS_P2;Temp;Humidity;BMP_temperature;BMP_pressure;BME280_temperature;BME280_humidity;BME280_pressure;Samples;Min_cycle;Max_cycle;Signal;HPM_P1;HPM_P2
2021/07/23 00:00:51;;;;;;;5.93;0.93;;;23.70;99.90;;;;;;20819496;28;20560;-75
2021/07/23 00:10:55;;;;;;;0.73;0.57;;;23.60;99.90;;;;;;20818373;28;20264;-75
2021/07/23 00:21:00;;;;;;;0.63;0.63;;;23.50;99.90;;;;;;20818642;28;20288;-73
2021/07/23 00:31:04;;;;;;;1.47;1.30;;;23.50;99.90;;;;;;20815950;28;20249;-72
2021/07/23 00:41:08;;;;;;;3.90;1.53;;;23.40;99.90;;;;;;20735504;28;20815;-74
2021/07/23 00:51:12;;;;;;;0.77;0.63;;;23.40;99.90;;;;;;20734697;28;20231;-75
2021/07/23 01:01:17;;;;;;;1.33;0.93;;;23.60;99.90;;;;;;20762694;23;20249;-74
2021/07/23 01:11:22;;;;;;;3.17;0.63;;;23.60;99.90;;;;;;20817233;28;20237;-77
2021/07/23 01:21:29;;;;;;;0.90;0.60;;;23.90;99.90;;;;;;20819582;28;20202;-77
2021/07/23 01:31:35;;;;;;;0.60;0.50;;;24.30;99.90;;;;;;20829642;28;20216;-78
2021/07/23 01:41:40;;;;;;;0.65;0.50;;;24.80;99.90;;;;;;20829008;28;20202;-78
2021/07/23 01:51:45;;;;;;;1.25;1.02;;;25.60;99.90;;;;;;20827401;28;20675;-73
2021/07/23 02:01:49;;;;;;;1.08;0.70;;;26.00;99.90;;;;;;20860139;23;20260;-72
2021/07/23 02:11:54;;;;;;;1.08;0.75;;;25.60;99.90;;;;;;20908775;28;20255;-74
2021/07/23 02:21:57;;;;;;;7.70;0.95;;;24.80;99.90;;;;;;20908193;28;20302;-75
2021/07/23 02:32:02;;;;;;;1.60;0.50;;;24.60;99.90;;;;;;20921174;28;20193;-76
2021/07/23 02:42:06;;;;;;;0.88;0.50;;;24.40;99.90;;;;;;20906544;28;20190;-75
2021/07/23 02:52:12;;;;;;;1.05;0.95;;;23.90;99.90;;;;;;20905984;28;20205;-74
2021/07/23 03:02:16;;;;;;;1.43;0.90;;;23.70;99.90;;;;;;20891418;22;20324;-67
2021/07/23 03:12:21;;;;;;;1.73;1.00;;;23.40;99.90;;;;;;20822712;28;20281;-68
2021/07/23 03:22:24;;;;;;;2.93;0.90;;;23.00;99.90;;;;;;20821340;28;20202;-68
2021/07/23 03:32:29;;;;;;;1.40;0.60;;;23.10;99.90;;;;;;20819638;28;20620;-68
2021/07/23 03:42:33;;;;;;;1.50;0.83;;;22.80;99.90;;;;;;20819401;28;20628;-67
2021/07/23 03:52:38;;;;;;;2.63;1.50;;;23.00;99.90;;;;;;20801094;28;20557;-67
2021/07/23 04:02:42;;;;;;;2.53;0.83;;;23.00;99.90;;;;;;20818729;28;20728;-68
2021/07/23 04:12:47;;;;;;;2.50;1.37;;;22.90;99.90;;;;;;20817904;28;20186;-68
2021/07/23 04:22:50;;;;;;;1.37;0.93;;;22.70;99.90;;;;;;20815326;28;20228;-67
2021/07/23 04:32:55;;;;;;;0.70;0.57;;;22.90;99.90;;;;;;20816941;28;20208;-67
2021/07/23 04:42:59;;;;;;;0.93;0.80;;;22.70;99.90;;;;;;20817031;28;20770;-67
2021/07/23 04:53:04;;;;;;;0.93;0.60;;;22.70;99.90;;;;;;20817607;28;20191;-67
2021/07/23 05:03:07;;;;;;;1.13;0.60;;;22.70;99.90;;;;;;20830135;28;20458;-67
2021/07/23 05:13:13;;;;;;;3.97;0.73;;;22.70;99.90;;;;;;20828650;28;20198;-68
2021/07/23 05:23:17;;;;;;;0.70;0.70;;;22.90;99.90;;;;;;20828915;28;20614;-67
2021/07/23 05:33:22;;;;;;;1.17;1.07;;;22.90;99.90;;;;;;20827895;28;20209;-68
2021/07/23 05:43:26;;;;;;;2.30;1.13;;;23.20;99.90;;;;;;20827027;28;20274;-68
2021/07/23 05:53:32;;;;;;;6.80;1.60;;;23.60;99.90;;;;;;20825294;28;20640;-67
2021/07/23 06:03:37;;;;;;;2.92;1.90;;;24.10;99.90;;;;;;20824264;28;20341;-67
2021/07/23 06:13:42;;;;;;;1.35;1.25;;;24.60;99.90;;;;;;20823771;28;20209;-67
2021/07/23 06:23:46;;;;;;;2.13;1.48;;;25.00;99.90;;;;;;20823429;28;20236;-68
2021/07/23 06:33:52;;;;;;;2.78;1.85;;;25.50;99.90;;;;;;20790719;28;20612;-69
2021/07/23 06:43:56;;;;;;;2.90;1.42;;;25.90;99.90;;;;;;20739274;28;20289;-70
2021/07/23 06:54:01;;;;;;;3.78;1.52;;;26.20;99.90;;;;;;20806810;28;20213;-69
2021/07/23 07:04:05;;;;;;;6.05;1.50;;;26.50;99.90;;;;;;20819346;28;20226;-70
2021/07/23 07:14:12;;;;;;;5.85;2.45;;;26.80;99.90;;;;;;20817347;28;20629;-68
2021/07/23 07:24:16;;;;;;;8.05;2.67;;;26.90;99.90;;;;;;20817130;28;20221;-68
2021/07/23 07:34:21;;;;;;;4.72;1.83;;;26.80;99.90;;;;;;20817268;28;20706;-68
2021/07/23 07:44:25;;;;;;;4.65;2.03;;;27.00;99.90;;;;;;20820339;28;20221;-69
2021/07/23 07:54:31;;;;;;;3.55;1.77;;;27.10;99.90;;;;;;20819498;28;20198;-69
2021/07/23 08:04:36;;;;;;;1.70;1.60;;;27.20;99.90;;;;;;20815288;28;20698;-69
2021/07/23 08:14:41;;;;;;;4.95;2.53;;;27.50;99.90;;;;;;20815347;28;20197;-69
2021/07/23 08:24:46;;;;;;;6.00;2.28;;;27.40;99.90;;;;;;20814846;28;20244;-69
2021/07/23 08:34:57;;;;;;;7.15;2.08;;;27.50;99.90;;;;;;20789366;28;20199;-68
2021/07/23 08:45:02;;;;;;;7.75;3.20;;;27.40;99.90;;;;;;20748021;28;20222;-70
2021/07/23 08:55:10;;;;;;;2.33;1.90;;;27.40;99.90;;;;;;20793420;28;20194;-71
2021/07/23 09:05:16;;;;;;;3.13;2.05;;;27.70;99.90;;;;;;20812263;28;20226;-67
2021/07/23 09:15:26;;;;;;;12.27;3.97;;;27.80;99.90;;;;;;20747132;28;20194;-71
2021/07/23 09:25:38;;;;;;;1.52;1.23;;;27.80;99.90;;;;;;20745561;28;20254;-70
2021/07/23 09:35:54;;;;;;;4.60;1.88;;;27.60;99.90;;;;;;20791673;28;20216;-71
2021/07/23 09:46:26;;;;;;;2.95;1.65;;;27.80;99.90;;;;;;20825091;28;20222;-70
2021/07/23 09:56:31;;;;;;;1.65;0.88;;;28.00;99.90;;;;;;20825264;28;20224;-70
2021/07/23 10:06:38;;;;;;;2.72;1.67;;;28.30;99.90;;;;;;20824799;28;20234;-68
2021/07/23 10:16:44;;;;;;;3.47;1.55;;;28.60;99.90;;;;;;20824393;28;20329;-69
2021/07/23 10:26:49;;;;;;;2.08;1.88;;;28.50;99.90;;;;;;20822754;28;20194;-69
2021/07/23 10:36:54;;;;;;;2.08;1.48;;;28.80;99.90;;;;;;20820700;28;20305;-67
2021/07/23 10:47:00;;;;;;;2.95;1.95;;;29.30;99.90;;;;;;20786520;28;20225;-69
2021/07/23 10:57:15;;;;;;;1.55;1.15;;;29.10;99.90;;;;;;20736699;28;20668;-70
2021/07/23 11:07:25;;;;;;;2.30;1.77;;;29.60;99.90;;;;;;20758699;28;20759;-69
2021/07/23 11:17:31;;;;;;;2.00;1.45;;;29.80;99.90;;;;;;20763430;28;20223;-68
2021/07/23 11:27:36;;;;;;;7.63;1.60;;;29.60;99.90;;;;;;20735816;28;20203;-68
2021/07/23 11:37:41;;;;;;;2.78;1.42;;;30.80;99.90;;;;;;20797736;28;20225;-67
2021/07/23 11:47:46;;;;;;;2.80;2.08;;;32.10;99.90;;;;;;20807719;28;20190;-67
2021/07/23 11:57:51;;;;;;;1.60;1.25;;;31.40;99.90;;;;;;20813605;28;20256;-66
2021/07/23 12:07:59;;;;;;;2.58;1.65;;;31.90;99.90;;;;;;20815199;28;20320;-66
2021/07/23 12:18:05;;;;;;;3.95;1.40;;;31.90;99.90;;;;;;20814923;28;20248;-67
2021/07/23 12:28:12;;;;;;;7.20;2.00;;;32.80;99.90;;;;;;20815145;28;20289;-70
2021/07/23 12:38:18;;;;;;;3.10;2.03;;;32.80;99.90;;;;;;20814707;28;20222;-71
2021/07/23 12:48:22;;;;;;;1.35;1.25;;;32.70;99.90;;;;;;20812135;28;20321;-67
2021/07/23 12:58:41;;;;;;;3.47;1.42;;;32.40;99.90;;;;;;20780046;28;20352;-67
2021/07/23 13:08:45;;;;;;;3.28;1.63;;;34.60;99.90;;;;;;20804565;28;20263;-69
2021/07/23 13:18:51;;;;;;;3.08;1.70;;;35.20;99.90;;;;;;20763679;28;20309;-69
2021/07/23 13:28:55;;;;;;;2.60;2.03;;;34.10;99.90;;;;;;20742452;28;20582;-67
2021/07/23 13:39:05;;;;;;;2.78;2.10;;;34.00;99.90;;;;;;20781846;28;20313;-68
2021/07/23 13:49:09;;;;;;;3.78;2.55;;;35.60;99.90;;;;;;20819602;28;20228;-68
2021/07/23 13:59:16;;;;;;;2.15;1.55;;;35.20;99.90;;;;;;20824821;28;20301;-68
2021/07/23 14:09:20;;;;;;;2.08;1.20;;;35.10;99.90;;;;;;20793195;28;20242;-68
2021/07/23 14:19:26;;;;;;;1.67;1.25;;;33.70;99.90;;;;;;20781339;28;20632;-66
2021/07/23 14:29:31;;;;;;;1.38;1.05;;;33.50;99.90;;;;;;20738500;28;20205;-68
2021/07/23 14:39:37;;;;;;;8.15;2.15;;;33.70;99.90;;;;;;20815248;28;20230;-68
2021/07/23 14:49:40;;;;;;;2.63;1.50;;;36.70;99.90;;;;;;20815996;28;20630;-69
2021/07/23 14:59:46;;;;;;;4.50;1.60;;;36.80;99.90;;;;;;20815415;28;20562;-67
2021/07/23 15:09:50;;;;;;;4.38;2.08;;;36.00;99.90;;;;;;20814931;28;20194;-68
2021/07/23 15:19:55;;;;;;;6.85;2.58;;;36.60;99.90;;;;;;20813114;28;20225;-68
2021/07/23 15:30:00;;;;;;;2.63;2.42;;;36.20;99.90;;;;;;20814392;28;20288;-69
2021/07/23 15:40:07;;;;;;;2.13;1.30;;;35.80;99.90;;;;;;20788400;28;20298;-69
2021/07/23 15:50:12;;;;;;;5.10;1.60;;;35.60;99.90;;;;;;20779259;28;20351;-67
2021/07/23 16:00:18;;;;;;;1.98;1.77;;;34.10;99.90;;;;;;20778199;28;20249;-67
2021/07/23 16:10:22;;;;;;;2.58;1.52;;;32.80;99.90;;;;;;20786185;28;20518;-69
2021/07/23 16:20:27;;;;;;;5.68;1.33;;;34.50;99.90;;;;;;20809851;28;20230;-67
2021/07/23 16:30:31;;;;;;;2.60;2.30;;;33.90;99.90;;;;;;20811692;28;20190;-65
2021/07/23 16:40:36;;;;;;;2.65;1.27;;;32.60;99.90;;;;;;20800777;28;20620;-67
2021/07/23 16:50:40;;;;;;;3.83;2.00;;;32.80;99.90;;;;;;20786779;28;20194;-68
2021/07/23 17:00:46;;;;;;;1.88;1.65;;;32.70;99.90;;;;;;20776478;28;20226;-66
2021/07/23 17:10:52;;;;;;;2.30;2.08;;;32.60;99.90;;;;;;20810029;28;20269;-68
2021/07/23 17:20:57;;;;;;;1.30;1.20;;;31.50;99.90;;;;;;20799409;28;20249;-68
2021/07/23 17:31:02;;;;;;;3.47;1.52;;;30.60;99.90;;;;;;20765153;28;20655;-68
2021/07/23 17:41:11;;;;;;;4.43;1.63;;;29.60;99.90;;;;;;20762285;28;20300;-68
2021/07/23 17:51:16;;;;;;;2.30;1.63;;;29.20;99.90;;;;;;20742737;28;20376;-69
2021/07/23 18:01:21;;;;;;;3.67;1.45;;;29.10;99.90;;;;;;20781563;28;20594;-70
2021/07/23 18:11:26;;;;;;;2.35;1.67;;;29.00;99.90;;;;;;20764554;28;20195;-68
2021/07/23 18:21:31;;;;;;;19.15;1.80;;;29.00;99.90;;;;;;20749311;28;20253;-68
2021/07/23 18:31:35;;;;;;;1.38;1.27;;;28.90;99.90;;;;;;20780099;28;20198;-68
2021/07/23 18:41:46;;;;;;;2.33;1.17;;;28.90;99.90;;;;;;20780566;28;20225;-68
2021/07/23 18:51:49;;;;;;;5.85;1.33;;;28.80;99.90;;;;;;20783507;28;20183;-68
2021/07/23 19:01:54;;;;;;;1.30;1.20;;;28.50;99.90;;;;;;20799449;28;20324;-66
2021/07/23 19:12:00;;;;;;;4.00;2.05;;;28.10;99.90;;;;;;20759074;28;20199;-68
2021/07/23 19:22:06;;;;;;;2.08;0.98;;;28.10;99.90;;;;;;20748390;28;20253;-66
2021/07/23 19:32:10;;;;;;;3.22;1.05;;;27.70;99.90;;;;;;20784288;28;20199;-67
2021/07/23 19:42:16;;;;;;;4.95;0.95;;;27.50;99.90;;;;;;20732631;28;20389;-67
2021/07/23 19:52:20;;;;;;;1.48;1.23;;;27.40;99.90;;;;;;20731517;28;20195;-67
2021/07/23 20:02:25;;;;;;;0.40;0.32;;;27.30;99.90;;;;;;20730721;28;20254;-66
2021/07/23 20:12:29;;;;;;;2.28;0.52;;;27.00;99.90;;;;;;20731058;28;20284;-67
2021/07/23 20:22:34;;;;;;;0.82;0.73;;;27.10;99.90;;;;;;20732946;28;20333;-67
2021/07/23 20:32:37;;;;;;;4.28;1.15;;;26.70;99.90;;;;;;20777884;28;20597;-66
2021/07/23 20:42:43;;;;;;;0.95;0.85;;;26.60;99.90;;;;;;20839077;28;20229;-67
2021/07/23 20:52:47;;;;;;;2.40;1.17;;;26.50;99.90;;;;;;20839077;28;20218;-66
2021/07/23 21:02:53;;;;;;;1.38;1.23;;;26.50;99.90;;;;;;20837082;28;20237;-67
2021/07/23 21:12:57;;;;;;;1.25;0.65;;;26.30;99.90;;;;;;20837945;28;20198;-67
2021/07/23 21:23:02;;;;;;;3.67;1.83;;;26.10;99.90;;;;;;20837253;28;20729;-67
2021/07/23 21:33:06;;;;;;;1.23;0.75;;;25.90;99.90;;;;;;20825506;28;20591;-68
2021/07/23 21:43:11;;;;;;;1.63;0.73;;;25.60;99.90;;;;;;20824252;28;20209;-67
2021/07/23 21:53:16;;;;;;;0.88;0.73;;;25.50;99.90;;;;;;20781252;28;20202;-69
2021/07/23 22:03:23;;;;;;;0.43;0.30;;;25.40;99.90;;;;;;20824892;28;20291;-68
2021/07/23 22:13:27;;;;;;;1.85;1.23;;;25.10;99.90;;;;;;20824972;28;20689;-68
2021/07/23 22:23:32;;;;;;;4.13;1.00;;;25.00;99.90;;;;;;20825049;28;20617;-68
2021/07/23 22:33:36;;;;;;;1.30;0.95;;;24.80;99.90;;;;;;20814811;28;20690;-68
2021/07/23 22:43:41;;;;;;;1.08;0.57;;;24.90;99.90;;;;;;20823281;28;20233;-68
2021/07/23 22:53:45;;;;;;;2.58;1.85;;;24.90;99.90;;;;;;20810127;28;20195;-68
2021/07/23 23:03:50;;;;;;;2.50;1.45;;;25.10;99.90;;;;;;20778416;28;20285;-68
2021/07/23 23:13:54;;;;;;;2.13;1.90;;;25.20;99.90;;;;;;20778154;28;20198;-68
2021/07/23 23:23:59;;;;;;;10.02;1.90;;;24.80;99.90;;;;;;20797889;28;20309;-68
2021/07/23 23:34:04;;;;;;;2.95;2.10;;;24.60;99.90;;;;;;20796632;28;20209;-67
2021/07/23 23:44:10;;;;;;;1.33;1.17;;;24.70;99.90;;;;;;20769462;28;20242;-67
2021/07/23 23:54:14;;;;;;;2.67;1.37;;;24.50;99.90;;;;;;20737040;28;20656;-67
